sensor_id;sensor_type;location;lat;lon;timestamp;temperature;humidity
20370;DHT22;10344;47.592;9.600;2024-01-30T00:02:18;2.40;99.90
20370;DHT22;10344;47.592;9.600;2024-01-30T00:04:44;2.40;99.90
20370;DHT22;10344;47.592;9.600;2024-01-30T00:07:09;2.30;99.90
20370;DHT22;10344;47.592;9.600;2024-01-30T00:09:35;2.30;99.90
20370;DHT22;10344;47.592;9.600;2024-01-30T00:12:04;2.30;99.90
20370;DHT22;10344;47.592;9.600;2024-01-30T00:14:30;2.30;99.90
20370;DHT22;10344;47.592;9.600;2024-01-30T00:16:55;2.30;99.90
20370;DHT22;10344;47.592;9.600;2024-01-30T00:19:21;2.30;99.90
20370;DHT22;10344;47.592;9.600;2024-01-30T00:21:47;2.30;99.90
20370;DHT22;10344;47.592;9.600;2024-01-30T00:24:13;2.30;99.90
20370;DHT22;10344;47.592;9.600;2024-01-30T00:26:41;2.30;99.90
20370;DHT22;10344;47.592;9.600;2024-01-30T00:29:07;2.30;99.90
20370;DHT22;10344;47.592;9.600;2024-01-30T00:31:32;2.30;99.90
20370;DHT22;10344;47.592;9.600;2024-01-30T00:34:00;2.20;99.90
20370;DHT22;10344;47.592;9.600;2024-01-30T00:36:26;2.20;99.90
20370;DHT22;10344;47.592;9.600;2024-01-30T00:38:51;2.20;99.90
20370;DHT22;10344;47.592;9.600;2024-01-30T00:41:18;2.20;99.90
20370;DHT22;10344;47.592;9.600;2024-01-30T00:43:44;2.20;99.90
20370;DHT22;10344;47.592;9.600;2024-01-30T00:46:10;2.30;99.90
20370;DHT22;10344;47.592;9.600;2024-01-30T00:48:35;2.20;99.90
20370;DHT22;10344;47.592;9.600;2024-01-30T00:51:01;2.10;99.90
20370;DHT22;10344;47.592;9.600;2024-01-30T00:53:27;2.20;99.90
20370;DHT22;10344;47.592;9.600;2024-01-30T00:55:52;2.20;99.90
20370;DHT22;10344;47.592;9.600;2024-01-30T00:58:20;2.20;99.90
20370;DHT22;10344;47.592;9.600;2024-01-30T01:00:46;2.10;99.90
20370;DHT22;10344;47.592;9.600;2024-01-30T01:03:12;2.10;99.90
20370;DHT22;10344;47.592;9.600;2024-01-30T01:05:39;2.00;99.90
20370;DHT22;10344;47.592;9.600;2024-01-30T01:08:05;2.00;99.90
20370;DHT22;10344;47.592;9.600;2024-01-30T01:10:30;2.00;99.90
20370;DHT22;10344;47.592;9.600;2024-01-30T01:12:56;1.90;99.90
20370;DHT22;10344;47.592;9.600;2024-01-30T01:15:24;1.90;99.90
20370;DHT22;10344;47.592;9.600;2024-01-30T01:17:50;1.90;99.90
20370;DHT22;10344;47.592;9.600;2024-01-30T01:20:15;1.90;99.90
20370;DHT22;10344;47.592;9.600;2024-01-30T01:22:41;1.90;99.90
20370;DHT22;10344;47.592;9.600;2024-01-30T01:25:07;1.90;99.90
20370;DHT22;10344;47.592;9.600;2024-01-30T01:27:33;1.80;99.90
20370;DHT22;10344;47.592;9.600;2024-01-30T01:30:02;1.80;99.90
20370;DHT22;10344;47.592;9.600;2024-01-30T01:32:30;1.80;99.90
20370;DHT22;10344;47.592;9.600;2024-01-30T01:34:56;1.80;99.90
20370;DHT22;10344;47.592;9.600;2024-01-30T01:37:21;1.80;99.90
20370;DHT22;10344;47.592;9.600;2024-01-30T01:39:48;1.70;99.90
20370;DHT22;10344;47.592;9.600;2024-01-30T01:42:13;1.70;99.90
20370;DHT22;10344;47.592;9.600;2024-01-30T01:44:41;1.70;99.90
20370;DHT22;10344;47.592;9.600;2024-01-30T01:47:07;1.70;99.90
20370;DHT22;10344;47.592;9.600;2024-01-30T01:49:32;1.70;99.90
20370;DHT22;10344;47.592;9.600;2024-01-30T01:51:59;1.80;99.90
20370;DHT22;10344;47.592;9.600;2024-01-30T01:54:25;1.80;99.90
20370;DHT22;10344;47.592;9.600;2024-01-30T01:56:52;1.80;99.90
20370;DHT22;10344;47.592;9.600;2024-01-30T01:59:19;1.80;99.90
20370;DHT22;10344;47.592;9.600;2024-01-30T02:01:45;1.80;99.90
20370;DHT22;10344;47.592;9.600;2024-01-30T02:04:14;1.80;99.90
20370;DHT22;10344;47.592;9.600;2024-01-30T02:06:43;1.90;99.90
20370;DHT22;10344;47.592;9.600;2024-01-30T02:09:09;1.90;99.90
20370;DHT22;10344;47.592;9.600;2024-01-30T02:11:37;1.80;99.90
20370;DHT22;10344;47.592;9.600;2024-01-30T02:14:04;1.90;99.90
20370;DHT22;10344;47.592;9.600;2024-01-30T02:16:30;1.90;99.90
20370;DHT22;10344;47.592;9.600;2024-01-30T02:18:55;1.90;99.90
20370;DHT22;10344;47.592;9.600;2024-01-30T02:21:21;1.90;99.90
20370;DHT22;10344;47.592;9.600;2024-01-30T02:23:49;1.90;99.90
20370;DHT22;10344;47.592;9.600;2024-01-30T02:26:16;1.80;99.90
20370;DHT22;10344;47.592;9.600;2024-01-30T02:28:41;1.80;99.90
20370;DHT22;10344;47.592;9.600;2024-01-30T02:31:07;1.80;99.90
20370;DHT22;10344;47.592;9.600;2024-01-30T02:33:33;1.80;99.90
20370;DHT22;10344;47.592;9.600;2024-01-30T02:35:58;1.80;99.90
20370;DHT22;10344;47.592;9.600;2024-01-30T02:38:24;1.80;99.90
20370;DHT22;10344;47.592;9.600;2024-01-30T02:40:52;1.80;99.90
20370;DHT22;10344;47.592;9.600;2024-01-30T02:43:18;1.80;99.90
20370;DHT22;10344;47.592;9.600;2024-01-30T02:45:43;1.80;99.90
20370;DHT22;10344;47.592;9.600;2024-01-30T02:48:09;1.80;99.90
20370;DHT22;10344;47.592;9.600;2024-01-30T02:50:35;1.70;99.90
20370;DHT22;10344;47.592;9.600;2024-01-30T02:53:01;1.70;99.90
20370;DHT22;10344;47.592;9.600;2024-01-30T02:55:30;1.70;99.90
20370;DHT22;10344;47.592;9.600;2024-01-30T02:57:56;1.70;99.90
20370;DHT22;10344;47.592;9.600;2024-01-30T03:00:22;1.70;99.90
20370;DHT22;10344;47.592;9.600;2024-01-30T03:02:47;1.80;99.90
20370;DHT22;10344;47.592;9.600;2024-01-30T03:05:15;1.80;99.90
20370;DHT22;10344;47.592;9.600;2024-01-30T03:07:40;1.70;99.90
20370;DHT22;10344;47.592;9.600;2024-01-30T03:10:06;1.70;99.90
20370;DHT22;10344;47.592;9.600;2024-01-30T03:12:32;1.80;99.90
20370;DHT22;10344;47.592;9.600;2024-01-30T03:14:58;1.90;99.90
20370;DHT22;10344;47.592;9.600;2024-01-30T03:17:24;1.80;99.90
20370;DHT22;10344;47.592;9.600;2024-01-30T03:19:52;1.80;99.90
20370;DHT22;10344;47.592;9.600;2024-01-30T03:22:17;1.80;99.90
20370;DHT22;10344;47.592;9.600;2024-01-30T03:24:45;1.80;99.90
20370;DHT22;10344;47.592;9.600;2024-01-30T03:27:11;1.80;99.90
20370;DHT22;10344;47.592;9.600;2024-01-30T03:29:37;1.90;99.90
20370;DHT22;10344;47.592;9.600;2024-01-30T03:32:02;1.90;99.90
20370;DHT22;10344;47.592;9.600;2024-01-30T03:34:29;1.90;99.90
20370;DHT22;10344;47.592;9.600;2024-01-30T03:36:55;1.90;99.90
20370;DHT22;10344;47.592;9.600;2024-01-30T03:39:20;2.00;99.90
20370;DHT22;10344;47.592;9.600;2024-01-30T03:41:48;2.00;99.90
20370;DHT22;10344;47.592;9.600;2024-01-30T03:44:13;2.00;99.90
20370;DHT22;10344;47.592;9.600;2024-01-30T03:46:39;2.00;99.90
20370;DHT22;10344;47.592;9.600;2024-01-30T03:49:05;2.00;99.90
20370;DHT22;10344;47.592;9.600;2024-01-30T03:51:30;2.00;99.90
20370;DHT22;10344;47.592;9.600;2024-01-30T03:53:56;2.00;99.90
20370;DHT22;10344;47.592;9.600;2024-01-30T03:56:21;2.00;99.90
20370;DHT22;10344;47.592;9.600;2024-01-30T03:58:47;1.90;99.90
20370;DHT22;10344;47.592;9.600;2024-01-30T04:01:13;1.90;99.90
20370;DHT22;10344;47.592;9.600;2024-01-30T04:03:42;1.90;99.90
20370;DHT22;10344;47.592;9.600;2024-01-30T04:06:10;1.80;99.90
20370;DHT22;10344;47.592;9.600;2024-01-30T04:08:39;1.80;99.90
20370;DHT22;10344;47.592;9.600;2024-01-30T04:11:05;1.80;99.90
20370;DHT22;10344;47.592;9.600;2024-01-30T04:13:31;1.80;99.90
20370;DHT22;10344;47.592;9.600;2024-01-30T04:15:59;1.90;99.90
20370;DHT22;10344;47.592;9.600;2024-01-30T04:18:25;1.80;99.90
20370;DHT22;10344;47.592;9.600;2024-01-30T04:20:50;1.80;99.90
20370;DHT22;10344;47.592;9.600;2024-01-30T04:23:16;1.70;99.90
20370;DHT22;10344;47.592;9.600;2024-01-30T04:25:42;1.70;99.90
20370;DHT22;10344;47.592;9.600;2024-01-30T04:28:10;1.80;99.90
20370;DHT22;10344;47.592;9.600;2024-01-30T04:30:37;1.80;99.90
20370;DHT22;10344;47.592;9.600;2024-01-30T04:33:03;1.70;99.90
20370;DHT22;10344;47.592;9.600;2024-01-30T04:35:29;1.70;99.90
20370;DHT22;10344;47.592;9.600;2024-01-30T04:37:57;1.80;99.90
20370;DHT22;10344;47.592;9.600;2024-01-30T04:40:22;1.80;99.90
20370;DHT22;10344;47.592;9.600;2024-01-30T04:42:48;1.80;99.90
20370;DHT22;10344;47.592;9.600;2024-01-30T04:45:14;1.90;99.90
20370;DHT22;10344;47.592;9.600;2024-01-30T04:47:42;1.90;99.90
20370;DHT22;10344;47.592;9.600;2024-01-30T04:50:11;2.00;99.90
20370;DHT22;10344;47.592;9.600;2024-01-30T04:52:37;2.00;99.90
20370;DHT22;10344;47.592;9.600;2024-01-30T04:55:05;2.00;99.90
20370;DHT22;10344;47.592;9.600;2024-01-30T04:57:33;2.00;99.90
20370;DHT22;10344;47.592;9.600;2024-01-30T05:00:02;2.00;99.90
20370;DHT22;10344;47.592;9.600;2024-01-30T05:02:28;2.00;99.90
20370;DHT22;10344;47.592;9.600;2024-01-30T05:04:54;2.00;99.90
20370;DHT22;10344;47.592;9.600;2024-01-30T05:07:22;2.10;99.90
20370;DHT22;10344;47.592;9.600;2024-01-30T05:09:50;2.10;99.90
20370;DHT22;10344;47.592;9.600;2024-01-30T05:12:15;2.10;99.90
20370;DHT22;10344;47.592;9.600;2024-01-30T05:14:43;2.10;99.90
20370;DHT22;10344;47.592;9.600;2024-01-30T05:17:11;2.10;99.90
20370;DHT22;10344;47.592;9.600;2024-01-30T05:19:38;2.10;99.90
20370;DHT22;10344;47.592;9.600;2024-01-30T05:22:04;2.10;99.90
20370;DHT22;10344;47.592;9.600;2024-01-30T05:24:31;2.20;99.90
20370;DHT22;10344;47.592;9.600;2024-01-30T05:26:57;2.20;99.90
20370;DHT22;10344;47.592;9.600;2024-01-30T05:29:23;2.20;99.90
20370;DHT22;10344;47.592;9.600;2024-01-30T05:31:49;2.20;99.90
20370;DHT22;10344;47.592;9.600;2024-01-30T05:34:14;2.30;99.90
20370;DHT22;10344;47.592;9.600;2024-01-30T05:36:42;2.30;99.90
20370;DHT22;10344;47.592;9.600;2024-01-30T05:39:08;2.20;99.90
20370;DHT22;10344;47.592;9.600;2024-01-30T05:41:36;2.30;99.90
20370;DHT22;10344;47.592;9.600;2024-01-30T05:44:04;2.30;99.90
20370;DHT22;10344;47.592;9.600;2024-01-30T05:46:30;2.30;99.90
20370;DHT22;10344;47.592;9.600;2024-01-30T05:48:55;2.30;99.90
20370;DHT22;10344;47.592;9.600;2024-01-30T05:51:23;2.20;99.90
20370;DHT22;10344;47.592;9.600;2024-01-30T05:53:49;2.30;99.90
20370;DHT22;10344;47.592;9.600;2024-01-30T05:56:15;2.20;99.90
20370;DHT22;10344;47.592;9.600;2024-01-30T05:58:40;2.30;99.90
20370;DHT22;10344;47.592;9.600;2024-01-30T06:01:09;2.30;99.90
20370;DHT22;10344;47.592;9.600;2024-01-30T06:03:35;2.20;99.90
20370;DHT22;10344;47.592;9.600;2024-01-30T06:06:01;2.20;99.90
20370;DHT22;10344;47.592;9.600;2024-01-30T06:08:26;2.20;99.90
20370;DHT22;10344;47.592;9.600;2024-01-30T06:10:52;2.20;99.90
20370;DHT22;10344;47.592;9.600;2024-01-30T06:13:17;2.20;99.90
20370;DHT22;10344;47.592;9.600;2024-01-30T06:15:46;2.20;99.90
20370;DHT22;10344;47.592;9.600;2024-01-30T06:18:13;2.20;99.90
20370;DHT22;10344;47.592;9.600;2024-01-30T06:20:39;2.20;99.90
20370;DHT22;10344;47.592;9.600;2024-01-30T06:23:07;2.20;99.90
20370;DHT22;10344;47.592;9.600;2024-01-30T06:25:33;2.20;99.90
20370;DHT22;10344;47.592;9.600;2024-01-30T06:28:01;2.20;99.90
20370;DHT22;10344;47.592;9.600;2024-01-30T06:30:26;2.20;99.90
20370;DHT22;10344;47.592;9.600;2024-01-30T06:32:52;2.20;99.90
20370;DHT22;10344;47.592;9.600;2024-01-30T06:35:18;2.20;99.90
20370;DHT22;10344;47.592;9.600;2024-01-30T06:37:43;2.10;99.90
20370;DHT22;10344;47.592;9.600;2024-01-30T06:40:09;2.10;99.90
20370;DHT22;10344;47.592;9.600;2024-01-30T06:42:35;2.20;99.90
20370;DHT22;10344;47.592;9.600;2024-01-30T06:45:01;2.20;99.90
20370;DHT22;10344;47.592;9.600;2024-01-30T06:47:29;2.20;99.90
20370;DHT22;10344;47.592;9.600;2024-01-30T06:49:56;2.20;99.90
20370;DHT22;10344;47.592;9.600;2024-01-30T06:52:21;2.20;99.90
20370;DHT22;10344;47.592;9.600;2024-01-30T06:54:47;2.30;99.90
20370;DHT22;10344;47.592;9.600;2024-01-30T06:57:13;2.30;99.90
20370;DHT22;10344;47.592;9.600;2024-01-30T06:59:39;2.30;99.90
20370;DHT22;10344;47.592;9.600;2024-01-30T07:02:10;2.30;99.90
20370;DHT22;10344;47.592;9.600;2024-01-30T07:04:35;2.40;99.90
20370;DHT22;10344;47.592;9.600;2024-01-30T07:07:03;2.40;99.90
20370;DHT22;10344;47.592;9.600;2024-01-30T07:09:30;2.40;99.90
20370;DHT22;10344;47.592;9.600;2024-01-30T07:11:56;2.40;99.90
20370;DHT22;10344;47.592;9.600;2024-01-30T07:14:24;2.40;99.90
20370;DHT22;10344;47.592;9.600;2024-01-30T07:16:49;2.30;99.90
20370;DHT22;10344;47.592;9.600;2024-01-30T07:19:15;2.30;99.90
20370;DHT22;10344;47.592;9.600;2024-01-30T07:21:43;2.30;99.90
20370;DHT22;10344;47.592;9.600;2024-01-30T07:24:09;2.30;99.90
20370;DHT22;10344;47.592;9.600;2024-01-30T07:26:35;2.40;99.90
20370;DHT22;10344;47.592;9.600;2024-01-30T07:29:01;2.40;99.90
20370;DHT22;10344;47.592;9.600;2024-01-30T07:31:27;2.40;99.90
20370;DHT22;10344;47.592;9.600;2024-01-30T07:33:52;2.40;99.90
20370;DHT22;10344;47.592;9.600;2024-01-30T07:36:19;2.50;99.90
20370;DHT22;10344;47.592;9.600;2024-01-30T07:38:45;2.50;99.90
20370;DHT22;10344;47.592;9.600;2024-01-30T07:41:13;2.50;99.90
20370;DHT22;10344;47.592;9.600;2024-01-30T07:43:39;2.60;99.90
20370;DHT22;10344;47.592;9.600;2024-01-30T07:46:04;2.60;99.90
20370;DHT22;10344;47.592;9.600;2024-01-30T07:48:33;2.60;99.90
20370;DHT22;10344;47.592;9.600;2024-01-30T07:50:59;2.60;99.90
20370;DHT22;10344;47.592;9.600;2024-01-30T07:53:25;2.70;99.90
20370;DHT22;10344;47.592;9.600;2024-01-30T07:55:51;2.70;99.90
20370;DHT22;10344;47.592;9.600;2024-01-30T07:58:17;2.80;99.90
20370;DHT22;10344;47.592;9.600;2024-01-30T08:00:43;2.80;99.90
20370;DHT22;10344;47.592;9.600;2024-01-30T08:03:08;2.80;99.90
20370;DHT22;10344;47.592;9.600;2024-01-30T08:05:34;2.80;99.90
20370;DHT22;10344;47.592;9.600;2024-01-30T08:07:59;2.80;99.90
20370;DHT22;10344;47.592;9.600;2024-01-30T08:10:25;2.90;99.90
20370;DHT22;10344;47.592;9.600;2024-01-30T08:12:50;2.90;99.90
20370;DHT22;10344;47.592;9.600;2024-01-30T08:15:16;2.90;99.90
20370;DHT22;10344;47.592;9.600;2024-01-30T08:17:43;2.90;99.90
20370;DHT22;10344;47.592;9.600;2024-01-30T08:20:10;2.90;99.90
20370;DHT22;10344;47.592;9.600;2024-01-30T08:22:39;2.90;99.90
20370;DHT22;10344;47.592;9.600;2024-01-30T08:25:07;3.00;99.90
20370;DHT22;10344;47.592;9.600;2024-01-30T08:27:33;3.00;99.90
20370;DHT22;10344;47.592;9.600;2024-01-30T08:30:01;3.10;99.90
20370;DHT22;10344;47.592;9.600;2024-01-30T08:32:26;3.10;99.90
20370;DHT22;10344;47.592;9.600;2024-01-30T08:34:54;3.10;99.90
20370;DHT22;10344;47.592;9.600;2024-01-30T08:37:20;3.20;99.90
20370;DHT22;10344;47.592;9.600;2024-01-30T08:39:45;3.20;99.90
20370;DHT22;10344;47.592;9.600;2024-01-30T08:42:13;3.30;99.90
20370;DHT22;10344;47.592;9.600;2024-01-30T08:44:39;3.30;99.90
20370;DHT22;10344;47.592;9.600;2024-01-30T08:47:04;3.40;99.90
20370;DHT22;10344;47.592;9.600;2024-01-30T08:49:30;3.40;99.90
20370;DHT22;10344;47.592;9.600;2024-01-30T08:51:56;3.40;99.90
20370;DHT22;10344;47.592;9.600;2024-01-30T08:54:23;3.50;99.90
20370;DHT22;10344;47.592;9.600;2024-01-30T08:56:49;3.50;99.90
20370;DHT22;10344;47.592;9.600;2024-01-30T08:59:15;3.50;99.90
20370;DHT22;10344;47.592;9.600;2024-01-30T09:01:40;3.60;99.90
20370;DHT22;10344;47.592;9.600;2024-01-30T09:04:06;3.60;99.90
20370;DHT22;10344;47.592;9.600;2024-01-30T09:06:32;3.70;99.90
20370;DHT22;10344;47.592;9.600;2024-01-30T09:09:00;3.60;99.90
20370;DHT22;10344;47.592;9.600;2024-01-30T09:11:25;3.60;99.90
20370;DHT22;10344;47.592;9.600;2024-01-30T09:13:51;3.50;99.90
20370;DHT22;10344;47.592;9.600;2024-01-30T09:16:16;3.60;99.90
20370;DHT22;10344;47.592;9.600;2024-01-30T09:18:42;3.70;99.90
20370;DHT22;10344;47.592;9.600;2024-01-30T09:21:08;3.70;99.90
20370;DHT22;10344;47.592;9.600;2024-01-30T09:23:34;3.70;99.90
20370;DHT22;10344;47.592;9.600;2024-01-30T09:26:00;3.70;99.90
20370;DHT22;10344;47.592;9.600;2024-01-30T09:28:25;3.60;99.90
20370;DHT22;10344;47.592;9.600;2024-01-30T09:30:54;3.50;99.90
20370;DHT22;10344;47.592;9.600;2024-01-30T09:33:20;3.50;99.90
20370;DHT22;10344;47.592;9.600;2024-01-30T09:35:47;3.50;99.90
20370;DHT22;10344;47.592;9.600;2024-01-30T09:38:13;3.50;99.90
20370;DHT22;10344;47.592;9.600;2024-01-30T09:40:41;3.40;99.90
20370;DHT22;10344;47.592;9.600;2024-01-30T09:43:07;3.40;99.90
20370;DHT22;10344;47.592;9.600;2024-01-30T09:45:33;3.40;99.90
20370;DHT22;10344;47.592;9.600;2024-01-30T09:48:00;3.50;99.90
20370;DHT22;10344;47.592;9.600;2024-01-30T09:50:26;3.50;99.90
20370;DHT22;10344;47.592;9.600;2024-01-30T09:52:56;3.50;99.90
20370;DHT22;10344;47.592;9.600;2024-01-30T09:55:24;3.60;99.90
20370;DHT22;10344;47.592;9.600;2024-01-30T09:57:52;3.60;99.90
20370;DHT22;10344;47.592;9.600;2024-01-30T10:00:19;3.80;99.90
20370;DHT22;10344;47.592;9.600;2024-01-30T10:02:45;3.90;99.90
20370;DHT22;10344;47.592;9.600;2024-01-30T10:05:15;4.10;99.90
20370;DHT22;10344;47.592;9.600;2024-01-30T10:07:52;4.20;99.90
20370;DHT22;10344;47.592;9.600;2024-01-30T10:10:18;4.20;99.90
20370;DHT22;10344;47.592;9.600;2024-01-30T10:12:43;4.20;99.90
20370;DHT22;10344;47.592;9.600;2024-01-30T10:15:09;4.20;99.90
20370;DHT22;10344;47.592;9.600;2024-01-30T10:17:37;4.20;99.90
20370;DHT22;10344;47.592;9.600;2024-01-30T10:20:06;4.10;99.90
20370;DHT22;10344;47.592;9.600;2024-01-30T10:22:33;4.20;99.90
20370;DHT22;10344;47.592;9.600;2024-01-30T10:25:00;4.30;99.90
20370;DHT22;10344;47.592;9.600;2024-01-30T10:27:26;4.40;99.90
20370;DHT22;10344;47.592;9.600;2024-01-30T10:29:57;4.50;99.90
20370;DHT22;10344;47.592;9.600;2024-01-30T10:32:23;4.60;99.90
20370;DHT22;10344;47.592;9.600;2024-01-30T10:34:49;4.80;99.90
20370;DHT22;10344;47.592;9.600;2024-01-30T10:37:15;4.90;99.90
20370;DHT22;10344;47.592;9.600;2024-01-30T10:39:45;5.00;99.90
20370;DHT22;10344;47.592;9.600;2024-01-30T10:42:13;5.00;99.90
20370;DHT22;10344;47.592;9.600;2024-01-30T10:45:06;5.00;99.90
20370;DHT22;10344;47.592;9.600;2024-01-30T10:47:35;5.00;99.90
20370;DHT22;10344;47.592;9.600;2024-01-30T10:50:02;5.00;99.90
20370;DHT22;10344;47.592;9.600;2024-01-30T10:52:29;4.90;99.90
20370;DHT22;10344;47.592;9.600;2024-01-30T10:54:56;5.00;99.90
20370;DHT22;10344;47.592;9.600;2024-01-30T10:57:27;5.00;99.90
20370;DHT22;10344;47.592;9.600;2024-01-30T10:59:56;5.00;99.90
20370;DHT22;10344;47.592;9.600;2024-01-30T11:02:23;5.00;99.90
20370;DHT22;10344;47.592;9.600;2024-01-30T11:04:54;5.10;99.90
20370;DHT22;10344;47.592;9.600;2024-01-30T11:07:26;5.10;99.90
20370;DHT22;10344;47.592;9.600;2024-01-30T11:09:54;5.20;99.90
20370;DHT22;10344;47.592;9.600;2024-01-30T11:12:32;5.10;99.90
20370;DHT22;10344;47.592;9.600;2024-01-30T11:15:02;5.10;99.90
20370;DHT22;10344;47.592;9.600;2024-01-30T11:17:44;5.00;99.90
20370;DHT22;10344;47.592;9.600;2024-01-30T11:20:11;5.00;99.90
20370;DHT22;10344;47.592;9.600;2024-01-30T11:22:37;5.00;99.90
20370;DHT22;10344;47.592;9.600;2024-01-30T11:25:03;5.00;99.90
20370;DHT22;10344;47.592;9.600;2024-01-30T11:27:30;4.90;99.90
20370;DHT22;10344;47.592;9.600;2024-01-30T11:30:03;4.90;99.90
20370;DHT22;10344;47.592;9.600;2024-01-30T11:32:31;4.90;99.90
20370;DHT22;10344;47.592;9.600;2024-01-30T11:35:00;5.10;99.90
20370;DHT22;10344;47.592;9.600;2024-01-30T11:37:28;5.20;99.90
20370;DHT22;10344;47.592;9.600;2024-01-30T11:39:56;5.30;99.90
20370;DHT22;10344;47.592;9.600;2024-01-30T11:42:24;5.50;99.90
20370;DHT22;10344;47.592;9.600;2024-01-30T11:44:53;5.40;99.90
20370;DHT22;10344;47.592;9.600;2024-01-30T11:47:19;5.40;99.90
20370;DHT22;10344;47.592;9.600;2024-01-30T11:49:45;5.50;99.90
20370;DHT22;10344;47.592;9.600;2024-01-30T11:52:10;5.60;99.90
20370;DHT22;10344;47.592;9.600;2024-01-30T11:54:39;5.60;99.90
20370;DHT22;10344;47.592;9.600;2024-01-30T11:57:05;5.70;99.90
20370;DHT22;10344;47.592;9.600;2024-01-30T11:59:33;5.80;99.90
20370;DHT22;10344;47.592;9.600;2024-01-30T12:02:00;5.70;99.90
20370;DHT22;10344;47.592;9.600;2024-01-30T12:04:29;5.50;99.90
20370;DHT22;10344;47.592;9.600;2024-01-30T12:06:55;5.30;99.90
20370;DHT22;10344;47.592;9.600;2024-01-30T12:09:21;5.30;99.90
20370;DHT22;10344;47.592;9.600;2024-01-30T12:11:49;5.30;99.90
20370;DHT22;10344;47.592;9.600;2024-01-30T12:14:18;5.30;99.90
20370;DHT22;10344;47.592;9.600;2024-01-30T12:16:50;5.40;99.90
20370;DHT22;10344;47.592;9.600;2024-01-30T12:19:25;5.50;99.90
20370;DHT22;10344;47.592;9.600;2024-01-30T12:21:57;5.40;99.90
20370;DHT22;10344;47.592;9.600;2024-01-30T12:24:28;5.20;99.90
20370;DHT22;10344;47.592;9.600;2024-01-30T12:26:59;5.10;99.90
20370;DHT22;10344;47.592;9.600;2024-01-30T12:29:24;5.30;99.90
20370;DHT22;10344;47.592;9.600;2024-01-30T12:31:53;5.30;99.90
20370;DHT22;10344;47.592;9.600;2024-01-30T12:34:19;5.30;99.90
20370;DHT22;10344;47.592;9.600;2024-01-30T12:36:47;5.20;99.90
20370;DHT22;10344;47.592;9.600;2024-01-30T12:39:14;5.30;99.90
20370;DHT22;10344;47.592;9.600;2024-01-30T12:41:40;5.40;99.90
20370;DHT22;10344;47.592;9.600;2024-01-30T12:44:06;5.50;99.90
20370;DHT22;10344;47.592;9.600;2024-01-30T12:46:35;5.60;99.90
20370;DHT22;10344;47.592;9.600;2024-01-30T12:49:00;5.70;99.90
20370;DHT22;10344;47.592;9.600;2024-01-30T12:51:28;5.50;99.90
20370;DHT22;10344;47.592;9.600;2024-01-30T12:53:54;5.50;99.90
20370;DHT22;10344;47.592;9.600;2024-01-30T12:56:25;5.40;99.90
20370;DHT22;10344;47.592;9.600;2024-01-30T12:58:50;5.30;99.90
20370;DHT22;10344;47.592;9.600;2024-01-30T13:01:16;5.40;99.90
20370;DHT22;10344;47.592;9.600;2024-01-30T13:03:42;5.50;99.90
20370;DHT22;10344;47.592;9.600;2024-01-30T13:06:07;5.60;99.90
20370;DHT22;10344;47.592;9.600;2024-01-30T13:08:33;5.70;99.90
20370;DHT22;10344;47.592;9.600;2024-01-30T13:11:00;5.90;99.90
20370;DHT22;10344;47.592;9.600;2024-01-30T13:13:31;6.10;99.90
20370;DHT22;10344;47.592;9.600;2024-01-30T13:15:57;6.10;99.90
20370;DHT22;10344;47.592;9.600;2024-01-30T13:18:23;6.00;99.90
20370;DHT22;10344;47.592;9.600;2024-01-30T13:20:48;5.90;99.90
20370;DHT22;10344;47.592;9.600;2024-01-30T13:23:14;5.90;99.90
20370;DHT22;10344;47.592;9.600;2024-01-30T13:25:39;5.80;99.90
20370;DHT22;10344;47.592;9.600;2024-01-30T13:28:05;5.70;99.90
20370;DHT22;10344;47.592;9.600;2024-01-30T13:30:31;5.50;99.90
20370;DHT22;10344;47.592;9.600;2024-01-30T13:32:57;5.20;99.90
20370;DHT22;10344;47.592;9.600;2024-01-30T13:35:22;5.10;99.90
20370;DHT22;10344;47.592;9.600;2024-01-30T13:37:48;5.10;99.90
20370;DHT22;10344;47.592;9.600;2024-01-30T13:40:14;5.10;99.90
20370;DHT22;10344;47.592;9.600;2024-01-30T13:42:40;5.20;99.90
20370;DHT22;10344;47.592;9.600;2024-01-30T13:45:06;5.10;99.90
20370;DHT22;10344;47.592;9.600;2024-01-30T13:47:31;5.00;99.90
20370;DHT22;10344;47.592;9.600;2024-01-30T13:49:57;4.90;99.90
20370;DHT22;10344;47.592;9.600;2024-01-30T13:52:23;4.70;99.90
20370;DHT22;10344;47.592;9.600;2024-01-30T13:54:48;4.60;99.90
20370;DHT22;10344;47.592;9.600;2024-01-30T13:57:19;4.60;99.90
20370;DHT22;10344;47.592;9.600;2024-01-30T13:59:44;4.70;99.90
20370;DHT22;10344;47.592;9.600;2024-01-30T14:02:10;4.80;99.90
20370;DHT22;10344;47.592;9.600;2024-01-30T14:04:36;4.90;99.90
20370;DHT22;10344;47.592;9.600;2024-01-30T14:07:03;4.90;99.90
20370;DHT22;10344;47.592;9.600;2024-01-30T14:09:29;4.90;99.90
20370;DHT22;10344;47.592;9.600;2024-01-30T14:11:57;4.80;99.90
20370;DHT22;10344;47.592;9.600;2024-01-30T14:14:23;4.90;99.90
20370;DHT22;10344;47.592;9.600;2024-01-30T14:16:49;5.00;99.90
20370;DHT22;10344;47.592;9.600;2024-01-30T14:19:15;5.00;99.90
20370;DHT22;10344;47.592;9.600;2024-01-30T14:21:40;5.20;99.90
20370;DHT22;10344;47.592;9.600;2024-01-30T14:24:06;5.30;99.90
20370;DHT22;10344;47.592;9.600;2024-01-30T14:26:32;5.30;99.90
20370;DHT22;10344;47.592;9.600;2024-01-30T14:28:57;5.40;99.90
20370;DHT22;10344;47.592;9.600;2024-01-30T14:31:23;5.40;99.90
20370;DHT22;10344;47.592;9.600;2024-01-30T14:33:49;5.50;99.90
20370;DHT22;10344;47.592;9.600;2024-01-30T14:36:17;5.40;99.90
20370;DHT22;10344;47.592;9.600;2024-01-30T14:38:43;5.30;99.90
20370;DHT22;10344;47.592;9.600;2024-01-30T14:41:10;5.20;99.90
20370;DHT22;10344;47.592;9.600;2024-01-30T14:43:35;5.10;99.90
20370;DHT22;10344;47.592;9.600;2024-01-30T14:46:03;5.00;99.90
20370;DHT22;10344;47.592;9.600;2024-01-30T14:48:31;5.00;99.90
20370;DHT22;10344;47.592;9.600;2024-01-30T14:51:04;5.00;99.90
20370;DHT22;10344;47.592;9.600;2024-01-30T14:53:31;4.80;99.90
20370;DHT22;10344;47.592;9.600;2024-01-30T14:55:57;4.80;99.90
20370;DHT22;10344;47.592;9.600;2024-01-30T14:58:23;4.80;99.90
20370;DHT22;10344;47.592;9.600;2024-01-30T15:00:49;4.70;99.90
20370;DHT22;10344;47.592;9.600;2024-01-30T15:03:14;4.60;99.90
20370;DHT22;10344;47.592;9.600;2024-01-30T15:05:40;4.50;99.90
20370;DHT22;10344;47.592;9.600;2024-01-30T15:08:06;4.60;99.90
20370;DHT22;10344;47.592;9.600;2024-01-30T15:10:31;4.70;99.90
20370;DHT22;10344;47.592;9.600;2024-01-30T15:12:57;4.70;99.90
20370;DHT22;10344;47.592;9.600;2024-01-30T15:15:23;4.70;99.90
20370;DHT22;10344;47.592;9.600;2024-01-30T15:17:48;4.70;99.90
20370;DHT22;10344;47.592;9.600;2024-01-30T15:20:14;4.70;99.90
20370;DHT22;10344;47.592;9.600;2024-01-30T15:22:40;4.70;99.90
20370;DHT22;10344;47.592;9.600;2024-01-30T15:25:06;4.70;99.90
20370;DHT22;10344;47.592;9.600;2024-01-30T15:27:34;4.80;99.90
20370;DHT22;10344;47.592;9.600;2024-01-30T15:30:00;4.70;99.90
20370;DHT22;10344;47.592;9.600;2024-01-30T15:32:27;4.60;99.90
20370;DHT22;10344;47.592;9.600;2024-01-30T15:34:55;4.40;99.90
20370;DHT22;10344;47.592;9.600;2024-01-30T15:37:22;4.40;99.90
20370;DHT22;10344;47.592;9.600;2024-01-30T15:39:47;4.40;99.90
20370;DHT22;10344;47.592;9.600;2024-01-30T15:42:13;4.40;99.90